sensor_id;sensor_type;location;lat;lon;timestamp;temperature;humidity
60353;DHT22;46196;52.970;6.954;2022-12-18T00:02:12;-3.20;99.90
60353;DHT22;46196;52.970;6.954;2022-12-18T00:04:38;-3.30;99.90
60353;DHT22;46196;52.970;6.954;2022-12-18T00:07:04;-3.30;99.90
60353;DHT22;46196;52.970;6.954;2022-12-18T00:09:30;-3.30;99.90
60353;DHT22;46196;52.970;6.954;2022-12-18T00:11:56;-3.30;99.90
60353;DHT22;46196;52.970;6.954;2022-12-18T00:14:21;-3.30;99.90
60353;DHT22;46196;52.970;6.954;2022-12-18T00:16:47;-3.30;99.90
60353;DHT22;46196;52.970;6.954;2022-12-18T00:19:13;-3.30;99.90
60353;DHT22;46196;52.970;6.954;2022-12-18T00:21:39;-3.30;99.90
60353;DHT22;46196;52.970;6.954;2022-12-18T00:24:06;-3.30;99.90
60353;DHT22;46196;52.970;6.954;2022-12-18T00:26:33;-2.30;99.90
60353;DHT22;46196;52.970;6.954;2022-12-18T00:29:00;-3.40;99.90
60353;DHT22;46196;52.970;6.954;2022-12-18T00:31:27;-3.30;99.90
60353;DHT22;46196;52.970;6.954;2022-12-18T00:33:56;-3.40;99.90
60353;DHT22;46196;52.970;6.954;2022-12-18T00:36:25;-3.40;99.90
60353;DHT22;46196;52.970;6.954;2022-12-18T00:38:53;-3.40;99.90
60353;DHT22;46196;52.970;6.954;2022-12-18T00:41:19;-3.40;99.90
60353;DHT22;46196;52.970;6.954;2022-12-18T00:44:05;-3.40;99.90
60353;DHT22;46196;52.970;6.954;2022-12-18T00:46:32;-3.50;99.90
60353;DHT22;46196;52.970;6.954;2022-12-18T00:48:57;-3.50;99.90
60353;DHT22;46196;52.970;6.954;2022-12-18T00:51:24;-3.50;99.90
60353;DHT22;46196;52.970;6.954;2022-12-18T00:53:51;-3.50;99.90
60353;DHT22;46196;52.970;6.954;2022-12-18T00:56:17;-3.50;99.90
60353;DHT22;46196;52.970;6.954;2022-12-18T00:58:42;-3.50;99.90
60353;DHT22;46196;52.970;6.954;2022-12-18T01:01:08;-3.50;99.90
60353;DHT22;46196;52.970;6.954;2022-12-18T01:03:34;-3.50;99.90
60353;DHT22;46196;52.970;6.954;2022-12-18T01:06:09;-3.60;99.90
60353;DHT22;46196;52.970;6.954;2022-12-18T01:08:35;-3.60;99.90
60353;DHT22;46196;52.970;6.954;2022-12-18T01:11:10;-3.60;99.90
60353;DHT22;46196;52.970;6.954;2022-12-18T01:13:37;-3.60;99.90
60353;DHT22;46196;52.970;6.954;2022-12-18T01:16:03;-3.70;99.90
60353;DHT22;46196;52.970;6.954;2022-12-18T01:18:29;-3.70;99.90
60353;DHT22;46196;52.970;6.954;2022-12-18T01:20:55;-3.70;99.90
60353;DHT22;46196;52.970;6.954;2022-12-18T01:23:20;-3.80;99.90
60353;DHT22;46196;52.970;6.954;2022-12-18T01:25:46;-3.80;99.90
60353;DHT22;46196;52.970;6.954;2022-12-18T01:28:12;-3.80;99.90
60353;DHT22;46196;52.970;6.954;2022-12-18T01:30:38;-3.80;99.90
60353;DHT22;46196;52.970;6.954;2022-12-18T01:33:06;-3.90;99.90
60353;DHT22;46196;52.970;6.954;2022-12-18T01:35:32;-3.90;99.90
60353;DHT22;46196;52.970;6.954;2022-12-18T01:37:58;-3.90;99.90
60353;DHT22;46196;52.970;6.954;2022-12-18T01:40:23;-4.00;99.90
60353;DHT22;46196;52.970;6.954;2022-12-18T01:42:52;-4.00;99.90
60353;DHT22;46196;52.970;6.954;2022-12-18T01:48:02;-4.10;99.90
60353;DHT22;46196;52.970;6.954;2022-12-18T01:50:35;-4.20;99.90
60353;DHT22;46196;52.970;6.954;2022-12-18T01:53:31;-4.20;99.90
60353;DHT22;46196;52.970;6.954;2022-12-18T01:55:57;-4.30;99.90
60353;DHT22;46196;52.970;6.954;2022-12-18T01:58:41;-4.30;99.90
60353;DHT22;46196;52.970;6.954;2022-12-18T02:01:08;-4.30;99.90
60353;DHT22;46196;52.970;6.954;2022-12-18T02:03:34;-4.40;99.90
60353;DHT22;46196;52.970;6.954;2022-12-18T02:06:10;-4.40;99.90
60353;DHT22;46196;52.970;6.954;2022-12-18T02:11:37;-4.50;99.90
60353;DHT22;46196;52.970;6.954;2022-12-18T02:17:06;-4.60;99.90
60353;DHT22;46196;52.970;6.954;2022-12-18T02:19:44;-4.60;99.90
60353;DHT22;46196;52.970;6.954;2022-12-18T02:27:45;-4.70;99.90
60353;DHT22;46196;52.970;6.954;2022-12-18T02:30:12;-5.40;99.90
60353;DHT22;46196;52.970;6.954;2022-12-18T02:32:41;-4.80;99.90
60353;DHT22;46196;52.970;6.954;2022-12-18T02:35:16;-4.80;99.90
60353;DHT22;46196;52.970;6.954;2022-12-18T02:37:43;-4.90;99.90
60353;DHT22;46196;52.970;6.954;2022-12-18T02:40:11;-4.90;99.90
60353;DHT22;46196;52.970;6.954;2022-12-18T02:42:37;-4.10;99.90
60353;DHT22;46196;52.970;6.954;2022-12-18T02:45:04;-5.00;99.90
60353;DHT22;46196;52.970;6.954;2022-12-18T02:47:33;-5.10;99.90
60353;DHT22;46196;52.970;6.954;2022-12-18T02:50:25;-5.10;99.90
60353;DHT22;46196;52.970;6.954;2022-12-18T02:53:43;-5.20;99.90
60353;DHT22;46196;52.970;6.954;2022-12-18T02:56:21;-5.30;99.90
60353;DHT22;46196;52.970;6.954;2022-12-18T02:59:00;-5.30;99.90
60353;DHT22;46196;52.970;6.954;2022-12-18T03:01:31;-5.30;99.90
60353;DHT22;46196;52.970;6.954;2022-12-18T03:04:07;-5.30;99.90
60353;DHT22;46196;52.970;6.954;2022-12-18T03:06:39;-5.40;99.90
60353;DHT22;46196;52.970;6.954;2022-12-18T03:09:17;-5.40;99.90
60353;DHT22;46196;52.970;6.954;2022-12-18T03:11:52;-5.40;99.90
60353;DHT22;46196;52.970;6.954;2022-12-18T03:14:40;-5.50;99.90
60353;DHT22;46196;52.970;6.954;2022-12-18T03:17:11;-5.50;99.90
60353;DHT22;46196;52.970;6.954;2022-12-18T03:19:40;-5.60;99.90
60353;DHT22;46196;52.970;6.954;2022-12-18T03:22:07;-5.60;99.90
60353;DHT22;46196;52.970;6.954;2022-12-18T03:24:35;-5.70;99.90
60353;DHT22;46196;52.970;6.954;2022-12-18T03:27:09;-5.70;99.90
60353;DHT22;46196;52.970;6.954;2022-12-18T03:30:05;-5.70;99.90
60353;DHT22;46196;52.970;6.954;2022-12-18T03:32:53;-5.70;99.90
60353;DHT22;46196;52.970;6.954;2022-12-18T03:35:27;-5.80;99.90
60353;DHT22;46196;52.970;6.954;2022-12-18T03:37:54;-5.80;99.90
60353;DHT22;46196;52.970;6.954;2022-12-18T03:40:25;-5.80;99.90
60353;DHT22;46196;52.970;6.954;2022-12-18T03:42:59;-5.80;99.90
60353;DHT22;46196;52.970;6.954;2022-12-18T03:45:36;-5.90;99.90
60353;DHT22;46196;52.970;6.954;2022-12-18T03:48:16;-5.90;99.90
60353;DHT22;46196;52.970;6.954;2022-12-18T03:51:17;-5.00;99.90
60353;DHT22;46196;52.970;6.954;2022-12-18T03:54:00;-5.90;99.90
60353;DHT22;46196;52.970;6.954;2022-12-18T03:56:34;-5.90;99.90
60353;DHT22;46196;52.970;6.954;2022-12-18T03:59:03;-5.90;99.90
60353;DHT22;46196;52.970;6.954;2022-12-18T04:01:35;-5.90;99.90
60353;DHT22;46196;52.970;6.954;2022-12-18T04:04:03;-5.90;99.90
60353;DHT22;46196;52.970;6.954;2022-12-18T04:06:30;-5.90;99.90
60353;DHT22;46196;52.970;6.954;2022-12-18T04:08:59;-5.90;99.90
60353;DHT22;46196;52.970;6.954;2022-12-18T04:11:25;-5.90;99.90
60353;DHT22;46196;52.970;6.954;2022-12-18T04:13:55;-5.90;99.90
60353;DHT22;46196;52.970;6.954;2022-12-18T04:16:21;-6.00;99.90
60353;DHT22;46196;52.970;6.954;2022-12-18T04:18:47;-6.00;99.90
60353;DHT22;46196;52.970;6.954;2022-12-18T04:21:13;-6.00;99.90
60353;DHT22;46196;52.970;6.954;2022-12-18T04:23:38;-6.00;99.90
60353;DHT22;46196;52.970;6.954;2022-12-18T04:26:04;-6.00;99.90
60353;DHT22;46196;52.970;6.954;2022-12-18T04:28:30;-6.00;99.90
60353;DHT22;46196;52.970;6.954;2022-12-18T04:30:55;-6.00;99.90
60353;DHT22;46196;52.970;6.954;2022-12-18T04:33:21;-6.00;99.90
60353;DHT22;46196;52.970;6.954;2022-12-18T04:35:47;-6.00;99.90
60353;DHT22;46196;52.970;6.954;2022-12-18T04:38:13;-6.00;99.90
60353;DHT22;46196;52.970;6.954;2022-12-18T04:40:38;-6.00;99.90
60353;DHT22;46196;52.970;6.954;2022-12-18T04:43:04;-6.00;99.90
60353;DHT22;46196;52.970;6.954;2022-12-18T04:45:31;-6.00;99.90
60353;DHT22;46196;52.970;6.954;2022-12-18T04:48:01;-6.10;99.90
60353;DHT22;46196;52.970;6.954;2022-12-18T04:50:27;-6.00;99.90
60353;DHT22;46196;52.970;6.954;2022-12-18T04:52:53;-6.10;99.90
60353;DHT22;46196;52.970;6.954;2022-12-18T04:55:19;-6.10;99.90
60353;DHT22;46196;52.970;6.954;2022-12-18T04:57:44;-6.10;99.90
60353;DHT22;46196;52.970;6.954;2022-12-18T05:00:11;-6.10;99.90
60353;DHT22;46196;52.970;6.954;2022-12-18T05:02:36;-6.10;99.90
60353;DHT22;46196;52.970;6.954;2022-12-18T05:05:02;-6.10;99.90
60353;DHT22;46196;52.970;6.954;2022-12-18T05:07:28;-6.10;99.90
60353;DHT22;46196;52.970;6.954;2022-12-18T05:09:54;-4.50;99.90
60353;DHT22;46196;52.970;6.954;2022-12-18T05:12:20;-6.20;99.90
60353;DHT22;46196;52.970;6.954;2022-12-18T05:14:45;-6.20;99.90
60353;DHT22;46196;52.970;6.954;2022-12-18T05:17:11;-6.20;99.90
60353;DHT22;46196;52.970;6.954;2022-12-18T05:19:37;-6.20;99.90
60353;DHT22;46196;52.970;6.954;2022-12-18T05:22:03;-6.30;99.90
60353;DHT22;46196;52.970;6.954;2022-12-18T05:24:29;-6.20;99.90
60353;DHT22;46196;52.970;6.954;2022-12-18T05:26:55;-6.30;99.90
60353;DHT22;46196;52.970;6.954;2022-12-18T05:29:20;-6.30;99.90
60353;DHT22;46196;52.970;6.954;2022-12-18T05:31:46;-6.30;99.90
60353;DHT22;46196;52.970;6.954;2022-12-18T05:34:12;-6.30;99.90
60353;DHT22;46196;52.970;6.954;2022-12-18T05:36:37;-6.30;99.90
60353;DHT22;46196;52.970;6.954;2022-12-18T05:39:04;-6.30;99.90
60353;DHT22;46196;52.970;6.954;2022-12-18T05:41:30;-6.30;99.90
60353;DHT22;46196;52.970;6.954;2022-12-18T05:43:56;-6.30;99.90
60353;DHT22;46196;52.970;6.954;2022-12-18T05:46:22;-6.30;99.90
60353;DHT22;46196;52.970;6.954;2022-12-18T05:48:47;-6.30;99.90
60353;DHT22;46196;52.970;6.954;2022-12-18T05:51:17;-6.30;99.90
60353;DHT22;46196;52.970;6.954;2022-12-18T05:53:43;-6.30;99.90
60353;DHT22;46196;52.970;6.954;2022-12-18T05:56:12;-6.30;99.90
60353;DHT22;46196;52.970;6.954;2022-12-18T05:58:38;-6.40;99.90
60353;DHT22;46196;52.970;6.954;2022-12-18T06:01:16;-6.40;99.90
60353;DHT22;46196;52.970;6.954;2022-12-18T06:03:43;-6.40;99.90
60353;DHT22;46196;52.970;6.954;2022-12-18T06:06:28;-6.40;99.90
60353;DHT22;46196;52.970;6.954;2022-12-18T06:08:55;-6.50;99.90
60353;DHT22;46196;52.970;6.954;2022-12-18T06:11:23;-6.50;99.90
60353;DHT22;46196;52.970;6.954;2022-12-18T06:13:53;-6.50;99.90
60353;DHT22;46196;52.970;6.954;2022-12-18T06:16:19;-6.50;99.90
60353;DHT22;46196;52.970;6.954;2022-12-18T06:18:45;-6.50;99.90
60353;DHT22;46196;52.970;6.954;2022-12-18T06:21:11;-6.50;99.90
60353;DHT22;46196;52.970;6.954;2022-12-18T06:23:37;-6.50;99.90
60353;DHT22;46196;52.970;6.954;2022-12-18T06:26:05;-6.30;99.90
60353;DHT22;46196;52.970;6.954;2022-12-18T06:28:31;-6.20;99.90
60353;DHT22;46196;52.970;6.954;2022-12-18T06:30:56;-6.30;99.90
60353;DHT22;46196;52.970;6.954;2022-12-18T06:33:26;-6.30;99.90
60353;DHT22;46196;52.970;6.954;2022-12-18T06:35:52;-6.30;99.90
60353;DHT22;46196;52.970;6.954;2022-12-18T06:38:18;-6.30;99.90
60353;DHT22;46196;52.970;6.954;2022-12-18T06:40:43;-6.40;99.90
60353;DHT22;46196;52.970;6.954;2022-12-18T06:43:09;-6.50;99.90
60353;DHT22;46196;52.970;6.954;2022-12-18T06:45:35;-6.50;99.90
60353;DHT22;46196;52.970;6.954;2022-12-18T06:48:01;-6.60;99.90
60353;DHT22;46196;52.970;6.954;2022-12-18T06:50:26;-6.60;99.90
60353;DHT22;46196;52.970;6.954;2022-12-18T06:52:52;-6.60;99.90
60353;DHT22;46196;52.970;6.954;2022-12-18T06:55:18;-6.70;99.90
60353;DHT22;46196;52.970;6.954;2022-12-18T06:57:44;-6.70;99.90
60353;DHT22;46196;52.970;6.954;2022-12-18T07:00:10;-6.70;99.90
60353;DHT22;46196;52.970;6.954;2022-12-18T07:02:36;-6.70;99.90
60353;DHT22;46196;52.970;6.954;2022-12-18T07:05:02;-6.70;99.90
60353;DHT22;46196;52.970;6.954;2022-12-18T07:07:28;-6.70;99.90
60353;DHT22;46196;52.970;6.954;2022-12-18T07:09:53;-6.80;99.90
60353;DHT22;46196;52.970;6.954;2022-12-18T07:12:19;-6.80;99.90
60353;DHT22;46196;52.970;6.954;2022-12-18T07:14:45;-6.80;99.90
60353;DHT22;46196;52.970;6.954;2022-12-18T07:17:10;-6.80;99.90
60353;DHT22;46196;52.970;6.954;2022-12-18T07:19:36;-6.80;99.90
60353;DHT22;46196;52.970;6.954;2022-12-18T07:22:02;-6.80;99.90
60353;DHT22;46196;52.970;6.954;2022-12-18T07:24:28;-6.90;99.90
60353;DHT22;46196;52.970;6.954;2022-12-18T07:26:54;-6.90;99.90
60353;DHT22;46196;52.970;6.954;2022-12-18T07:29:20;-6.90;99.90
60353;DHT22;46196;52.970;6.954;2022-12-18T07:31:45;-6.90;99.90
60353;DHT22;46196;52.970;6.954;2022-12-18T07:34:12;-6.80;99.90
60353;DHT22;46196;52.970;6.954;2022-12-18T07:36:38;-6.90;99.90
60353;DHT22;46196;52.970;6.954;2022-12-18T07:39:04;-6.80;99.90
60353;DHT22;46196;52.970;6.954;2022-12-18T07:41:29;-6.90;99.90
60353;DHT22;46196;52.970;6.954;2022-12-18T07:43:55;-6.80;99.90
60353;DHT22;46196;52.970;6.954;2022-12-18T07:46:22;-6.80;99.90
60353;DHT22;46196;52.970;6.954;2022-12-18T07:48:48;-6.80;99.90
60353;DHT22;46196;52.970;6.954;2022-12-18T07:51:13;-6.70;99.90
60353;DHT22;46196;52.970;6.954;2022-12-18T07:53:40;-6.60;99.90
60353;DHT22;46196;52.970;6.954;2022-12-18T07:56:08;-6.60;99.90
60353;DHT22;46196;52.970;6.954;2022-12-18T07:58:35;-6.60;99.90
60353;DHT22;46196;52.970;6.954;2022-12-18T08:03:30;-6.50;99.90
60353;DHT22;46196;52.970;6.954;2022-12-18T08:06:03;-6.50;99.90
60353;DHT22;46196;52.970;6.954;2022-12-18T08:08:30;-6.40;99.90
60353;DHT22;46196;52.970;6.954;2022-12-18T08:10:57;-6.30;99.90
60353;DHT22;46196;52.970;6.954;2022-12-18T08:13:23;-5.80;99.90
60353;DHT22;46196;52.970;6.954;2022-12-18T08:15:57;-6.30;99.90
60353;DHT22;46196;52.970;6.954;2022-12-18T08:18:23;-6.20;99.90
60353;DHT22;46196;52.970;6.954;2022-12-18T08:20:49;-6.10;99.90
60353;DHT22;46196;52.970;6.954;2022-12-18T08:23:14;-6.10;99.90
60353;DHT22;46196;52.970;6.954;2022-12-18T08:25:40;-5.90;99.90
60353;DHT22;46196;52.970;6.954;2022-12-18T08:28:06;-5.80;99.90
60353;DHT22;46196;52.970;6.954;2022-12-18T08:30:32;-5.80;99.90
60353;DHT22;46196;52.970;6.954;2022-12-18T08:32:58;-5.10;99.90
60353;DHT22;46196;52.970;6.954;2022-12-18T08:35:24;-5.70;99.90
60353;DHT22;46196;52.970;6.954;2022-12-18T08:37:50;-5.60;99.90
60353;DHT22;46196;52.970;6.954;2022-12-18T08:40:15;-5.50;99.90
60353;DHT22;46196;52.970;6.954;2022-12-18T08:42:42;-5.40;99.90
60353;DHT22;46196;52.970;6.954;2022-12-18T08:45:26;-3.90;99.90
60353;DHT22;46196;52.970;6.954;2022-12-18T08:47:52;-5.30;99.90
60353;DHT22;46196;52.970;6.954;2022-12-18T08:50:18;-5.20;99.90
60353;DHT22;46196;52.970;6.954;2022-12-18T08:52:44;-5.20;99.90
60353;DHT22;46196;52.970;6.954;2022-12-18T08:55:10;-5.20;99.90
60353;DHT22;46196;52.970;6.954;2022-12-18T08:57:35;-5.10;99.90
60353;DHT22;46196;52.970;6.954;2022-12-18T09:00:01;-5.00;99.90
60353;DHT22;46196;52.970;6.954;2022-12-18T09:02:27;-5.00;99.90
60353;DHT22;46196;52.970;6.954;2022-12-18T09:04:53;-4.90;99.90
60353;DHT22;46196;52.970;6.954;2022-12-18T09:07:19;-4.90;99.90
60353;DHT22;46196;52.970;6.954;2022-12-18T09:09:44;-4.80;99.90
60353;DHT22;46196;52.970;6.954;2022-12-18T09:12:10;-4.80;99.90
60353;DHT22;46196;52.970;6.954;2022-12-18T09:14:36;-4.70;99.90
60353;DHT22;46196;52.970;6.954;2022-12-18T09:17:02;-4.60;99.90
60353;DHT22;46196;52.970;6.954;2022-12-18T09:19:28;-4.50;99.90
60353;DHT22;46196;52.970;6.954;2022-12-18T09:21:53;-4.50;99.90
60353;DHT22;46196;52.970;6.954;2022-12-18T09:24:20;-4.40;99.90
60353;DHT22;46196;52.970;6.954;2022-12-18T09:26:45;-4.30;99.90
60353;DHT22;46196;52.970;6.954;2022-12-18T09:29:11;-4.20;99.90
60353;DHT22;46196;52.970;6.954;2022-12-18T09:31:38;-4.10;99.90
60353;DHT22;46196;52.970;6.954;2022-12-18T09:34:03;-4.00;99.90
60353;DHT22;46196;52.970;6.954;2022-12-18T09:36:32;-3.90;99.90
60353;DHT22;46196;52.970;6.954;2022-12-18T09:38:58;-3.80;99.90
60353;DHT22;46196;52.970;6.954;2022-12-18T09:47:28;-3.60;99.90
60353;DHT22;46196;52.970;6.954;2022-12-18T09:50:12;-3.40;99.90
60353;DHT22;46196;52.970;6.954;2022-12-18T09:52:45;-3.30;99.90
60353;DHT22;46196;52.970;6.954;2022-12-18T09:58:05;-3.10;99.90
60353;DHT22;46196;52.970;6.954;2022-12-18T10:00:32;-3.00;99.90
60353;DHT22;46196;52.970;6.954;2022-12-18T10:03:03;-2.70;99.90
60353;DHT22;46196;52.970;6.954;2022-12-18T10:08:08;-2.70;99.90
60353;DHT22;46196;52.970;6.954;2022-12-18T10:10:50;-2.60;99.90
60353;DHT22;46196;52.970;6.954;2022-12-18T10:17:01;-2.40;99.90
60353;DHT22;46196;52.970;6.954;2022-12-18T10:26:52;-2.30;99.90
60353;DHT22;46196;52.970;6.954;2022-12-18T10:29:21;-2.30;99.90
60353;DHT22;46196;52.970;6.954;2022-12-18T10:31:47;-2.30;99.90
60353;DHT22;46196;52.970;6.954;2022-12-18T10:34:13;-2.30;99.90
60353;DHT22;46196;52.970;6.954;2022-12-18T10:36:39;-2.30;99.90
60353;DHT22;46196;52.970;6.954;2022-12-18T10:39:20;-2.30;99.90
60353;DHT22;46196;52.970;6.954;2022-12-18T10:41:48;-2.20;99.90
60353;DHT22;46196;52.970;6.954;2022-12-18T10:46:40;-2.20;99.90
60353;DHT22;46196;52.970;6.954;2022-12-18T10:49:25;-2.20;99.90
60353;DHT22;46196;52.970;6.954;2022-12-18T10:52:04;-2.10;99.90
60353;DHT22;46196;52.970;6.954;2022-12-18T10:54:31;-2.10;99.90
60353;DHT22;46196;52.970;6.954;2022-12-18T10:57:20;-2.00;99.90
60353;DHT22;46196;52.970;6.954;2022-12-18T10:59:57;-2.00;99.90
60353;DHT22;46196;52.970;6.954;2022-12-18T11:02:25;-1.90;99.90
60353;DHT22;46196;52.970;6.954;2022-12-18T11:04:52;-1.90;99.90
60353;DHT22;46196;52.970;6.954;2022-12-18T11:07:18;-1.80;99.90
60353;DHT22;46196;52.970;6.954;2022-12-18T11:09:45;-1.80;99.90
60353;DHT22;46196;52.970;6.954;2022-12-18T11:12:24;-1.80;99.90
60353;DHT22;46196;52.970;6.954;2022-12-18T11:14:54;-1.70;99.90
60353;DHT22;46196;52.970;6.954;2022-12-18T11:17:33;-1.70;99.90
60353;DHT22;46196;52.970;6.954;2022-12-18T11:20:05;-1.60;99.90
60353;DHT22;46196;52.970;6.954;2022-12-18T11:22:36;-1.60;99.90
60353;DHT22;46196;52.970;6.954;2022-12-18T11:25:17;-1.60;99.90
60353;DHT22;46196;52.970;6.954;2022-12-18T11:27:55;-1.50;99.90
60353;DHT22;46196;52.970;6.954;2022-12-18T11:33:11;-1.40;99.90
60353;DHT22;46196;52.970;6.954;2022-12-18T11:35:55;-1.40;99.90
60353;DHT22;46196;52.970;6.954;2022-12-18T11:38:28;-1.30;99.90
60353;DHT22;46196;52.970;6.954;2022-12-18T11:41:06;-1.20;99.90
60353;DHT22;46196;52.970;6.954;2022-12-18T11:46:26;-1.20;99.90
60353;DHT22;46196;52.970;6.954;2022-12-18T11:49:03;-1.20;99.90
60353;DHT22;46196;52.970;6.954;2022-12-18T11:51:43;-1.20;99.90
60353;DHT22;46196;52.970;6.954;2022-12-18T11:54:15;-1.10;99.90
60353;DHT22;46196;52.970;6.954;2022-12-18T11:56:51;-1.10;99.90
60353;DHT22;46196;52.970;6.954;2022-12-18T11:59:25;-1.10;99.90
60353;DHT22;46196;52.970;6.954;2022-12-18T12:02:28;-1.00;99.90
60353;DHT22;46196;52.970;6.954;2022-12-18T12:16:09;-0.90;99.90
60353;DHT22;46196;52.970;6.954;2022-12-18T12:30:35;-0.70;99.90
60353;DHT22;46196;52.970;6.954;2022-12-18T12:38:34;-0.60;99.90
60353;DHT22;46196;52.970;6.954;2022-12-18T12:41:08;-0.60;99.90
60353;DHT22;46196;52.970;6.954;2022-12-18T12:43:57;-0.60;99.90
60353;DHT22;46196;52.970;6.954;2022-12-18T12:46:25;-0.60;99.90
60353;DHT22;46196;52.970;6.954;2022-12-18T12:49:00;-0.60;99.90
60353;DHT22;46196;52.970;6.954;2022-12-18T12:51:39;-0.60;99.90
60353;DHT22;46196;52.970;6.954;2022-12-18T12:54:21;-0.60;99.90
60353;DHT22;46196;52.970;6.954;2022-12-18T12:56:57;-0.70;99.90
60353;DHT22;46196;52.970;6.954;2022-12-18T13:02:23;-0.60;99.90
60353;DHT22;46196;52.970;6.954;2022-12-18T13:07:35;-0.60;99.90
60353;DHT22;46196;52.970;6.954;2022-12-18T13:15:33;-0.60;99.90
60353;DHT22;46196;52.970;6.954;2022-12-18T13:18:05;-0.60;99.90
60353;DHT22;46196;52.970;6.954;2022-12-18T13:36:46;-0.60;99.90
60353;DHT22;46196;52.970;6.954;2022-12-18T13:41:45;-0.60;99.90
60353;DHT22;46196;52.970;6.954;2022-12-18T13:46:46;-0.60;99.90
60353;DHT22;46196;52.970;6.954;2022-12-18T13:51:41;-0.70;99.90
60353;DHT22;46196;52.970;6.954;2022-12-18T13:54:30;-0.70;99.90
60353;DHT22;46196;52.970;6.954;2022-12-18T13:56:58;-0.70;99.90
60353;DHT22;46196;52.970;6.954;2022-12-18T13:59:26;-0.70;99.90
60353;DHT22;46196;52.970;6.954;2022-12-18T14:04:26;-0.70;99.90
60353;DHT22;46196;52.970;6.954;2022-12-18T14:06:56;-0.70;99.90
60353;DHT22;46196;52.970;6.954;2022-12-18T14:09:29;-0.80;99.90
60353;DHT22;46196;52.970;6.954;2022-12-18T14:11:55;-0.80;99.90
60353;DHT22;46196;52.970;6.954;2022-12-18T14:14:45;-0.80;99.90
60353;DHT22;46196;52.970;6.954;2022-12-18T14:17:12;-0.80;99.90
60353;DHT22;46196;52.970;6.954;2022-12-18T14:19:44;-0.80;99.90
60353;DHT22;46196;52.970;6.954;2022-12-18T14:22:18;0.20;99.90
60353;DHT22;46196;52.970;6.954;2022-12-18T14:24:45;-0.80;99.90
60353;DHT22;46196;52.970;6.954;2022-12-18T14:27:24;-0.80;99.90
60353;DHT22;46196;52.970;6.954;2022-12-18T14:29:50;-0.90;99.90
60353;DHT22;46196;52.970;6.954;2022-12-18T14:32:19;-0.90;99.90
60353;DHT22;46196;52.970;6.954;2022-12-18T14:35:12;-0.90;99.90
60353;DHT22;46196;52.970;6.954;2022-12-18T14:37:38;-1.00;99.90
60353;DHT22;46196;52.970;6.954;2022-12-18T14:40:04;-1.00;99.90
60353;DHT22;46196;52.970;6.954;2022-12-18T14:42:31;-1.00;99.90
60353;DHT22;46196;52.970;6.954;2022-12-18T14:45:34;-1.00;99.90
60353;DHT22;46196;52.970;6.954;2022-12-18T14:48:39;-1.00;99.90
60353;DHT22;46196;52.970;6.954;2022-12-18T14:51:19;-1.00;99.90
60353;DHT22;46196;52.970;6.954;2022-12-18T14:53:57;-1.10;99.90
60353;DHT22;46196;52.970;6.954;2022-12-18T14:56:35;-1.10;99.90
60353;DHT22;46196;52.970;6.954;2022-12-18T14:59:04;-1.10;99.90
60353;DHT22;46196;52.970;6.954;2022-12-18T15:01:33;-1.10;99.90
60353;DHT22;46196;52.970;6.954;2022-12-18T15:04:01;-1.10;99.90
60353;DHT22;46196;52.970;6.954;2022-12-18T15:06:36;-1.10;99.90
60353;DHT22;46196;52.970;6.954;2022-12-18T15:09:25;-1.10;99.90
60353;DHT22;46196;52.970;6.954;2022-12-18T15:11:59;-1.10;99.90
60353;DHT22;46196;52.970;6.954;2022-12-18T15:14:34;-1.20;99.90
60353;DHT22;46196;52.970;6.954;2022-12-18T15:17:03;-1.20;99.90
60353;DHT22;46196;52.970;6.954;2022-12-18T15:19:34;-1.10;99.90
60353;DHT22;46196;52.970;6.954;2022-12-18T15:22:01;-1.20;99.90
60353;DHT22;46196;52.970;6.954;2022-12-18T15:24:30;-1.10;99.90
60353;DHT22;46196;52.970;6.954;2022-12-18T15:26:56;-1.20;99.90
60353;DHT22;46196;52.970;6.954;2022-12-18T15:29:22;-1.20;99.90
60353;DHT22;46196;52.970;6.954;2022-12-18T15:32:01;-0.80;99.90
60353;DHT22;46196;52.970;6.954;2022-12-18T15:34:28;-1.20;99.90
60353;DHT22;46196;52.970;6.954;2022-12-18T15:36:54;-1.20;99.90
60353;DHT22;46196;52.970;6.954;2022-12-18T15:39:20;-1.10;99.90
60353;DHT22;46196;52.970;6.954;2022-12-18T15:41:46;-1.20;99.90
60353;DHT22;46196;52.970;6.954;2022-12-18T15:44:30;-1.10;99.90
60353;DHT22;46196;52.970;6.954;2022-12-18T15:46:57;-1.20;99.90
60353;DHT22;46196;52.970;6.954;2022-12-18T15:49:22;-1.20;99.90
60353;DHT22;46196;52.970;6.954;2022-12-18T15:51:59;-1.20;99.90
60353;DHT22;46196;52.970;6.954;2022-12-18T15:54:25;-1.20;99.90
60353;DHT22;46196;52.970;6.954;2022-12-18T15:57:11;-1.20;99.90
60353;DHT22;46196;52.970;6.954;2022-12-18T15:59:52;-1.20;99.90
60353;DHT22;46196;52.970;6.954;2022-12-18T16:02:19;-1.20;99.90
60353;DHT22;46196;52.970;6.954;2022-12-18T16:04:45;-1.20;99.90
60353;DHT22;46196;52.970;6.954;2022-12-18T16:07:12;-1.20;99.90
60353;DHT22;46196;52.970;6.954;2022-12-18T16:09:38;-1.20;99.90
60353;DHT22;46196;52.970;6.954;2022-12-18T16:12:05;-1.20;99.90
60353;DHT22;46196;52.970;6.954;2022-12-18T16:14:32;-1.20;99.90
60353;DHT22;46196;52.970;6.954;2022-12-18T16:17:03;-1.20;99.90
60353;DHT22;46196;52.970;6.954;2022-12-18T16:19:30;-1.20;99.90
60353;DHT22;46196;52.970;6.954;2022-12-18T16:21:58;-1.20;99.90
60353;DHT22;46196;52.970;6.954;2022-12-18T16:24:26;-1.10;99.90
60353;DHT22;46196;52.970;6.954;2022-12-18T16:26:53;-1.20;99.90
60353;DHT22;46196;52.970;6.954;2022-12-18T16:29:20;-1.00;99.90
60353;DHT22;46196;52.970;6.954;2022-12-18T16:31:50;-0.10;99.90
60353;DHT22;46196;52.970;6.954;2022-12-18T16:34:29;-1.20;99.90
60353;DHT22;46196;52.970;6.954;2022-12-18T16:36:58;-1.20;99.90
60353;DHT22;46196;52.970;6.954;2022-12-18T16:39:25;-1.20;99.90
60353;DHT22;46196;52.970;6.954;2022-12-18T16:41:51;-1.10;99.90
60353;DHT22;46196;52.970;6.954;2022-12-18T16:44:16;-1.20;99.90
60353;DHT22;46196;52.970;6.954;2022-12-18T16:46:42;-0.40;99.90
60353;DHT22;46196;52.970;6.954;2022-12-18T16:49:11;-1.10;99.90
60353;DHT22;46196;52.970;6.954;2022-12-18T16:51:38;-1.10;99.90
60353;DHT22;46196;52.970;6.954;2022-12-18T16:54:04;0.10;99.90
60353;DHT22;46196;52.970;6.954;2022-12-18T16:56:30;0.10;99.90
60353;DHT22;46196;52.970;6.954;2022-12-18T16:58:57;-1.10;99.90
60353;DHT22;46196;52.970;6.954;2022-12-18T17:01:25;-1.10;99.90
60353;DHT22;46196;52.970;6.954;2022-12-18T17:03:55;-1.10;99.90
60353;DHT22;46196;52.970;6.954;2022-12-18T17:06:23;-1.10;99.90
60353;DHT22;46196;52.970;6.954;2022-12-18T17:09:04;-1.10;99.90
60353;DHT22;46196;52.970;6.954;2022-12-18T17:11:31;-1.00;99.90
60353;DHT22;46196;52.970;6.954;2022-12-18T17:13:58;-1.00;99.90
60353;DHT22;46196;52.970;6.954;2022-12-18T17:16:24;-1.00;99.90
60353;DHT22;46196;52.970;6.954;2022-12-18T17:18:52;-1.00;99.90
60353;DHT22;46196;52.970;6.954;2022-12-18T17:21:18;-1.00;99.90
60353;DHT22;46196;52.970;6.954;2022-12-18T17:23:44;-1.00;99.90
60353;DHT22;46196;52.970;6.954;2022-12-18T17:26:11;-1.00;99.90
60353;DHT22;46196;52.970;6.954;2022-12-18T17:28:38;-1.00;99.90
60353;DHT22;46196;52.970;6.954;2022-12-18T17:31:19;-0.90;99.90
60353;DHT22;46196;52.970;6.954;2022-12-18T17:33:46;-2.20;99.90
60353;DHT22;46196;52.970;6.954;2022-12-18T17:36:13;-1.00;99.90
60353;DHT22;46196;52.970;6.954;2022-12-18T17:38:40;-0.90;99.90
60353;DHT22;46196;52.970;6.954;2022-12-18T17:41:07;-0.90;99.90